Time;durP1;ratioP1;P1;durP2;ratioP2;P2;SDS_P1;SDS_P2;PMS_P1;PMS_P2;Temp;Humidity;BMP_temperature;BMP_pressure;BME280_temperature;BME280_humidity;BME280_pressure;Samples;Min_cycle;Max_cycle;Signal;HPM_P1;HPM_P2
2023/06/09 00:01:15;;;;;;;31.75;18.23;;;;;;;;;;5063414;28;20060;-79
2023/06/09 00:03:41;;;;;;;29.23;19.13;;;;;;;;;;5064466;28;20056;-81
2023/06/09 00:06:08;;;;;;;25.20;18.63;;;;;;;;;;5064202;28;20065;-82
2023/06/09 00:08:36;;;;;;;25.50;17.77;;;;;;;;;;5065391;28;20052;-81
2023/06/09 00:11:02;;;;;;;27.95;17.92;;;;;;;;;;5062831;28;20440;-81
2023/06/09 00:13:32;;;;;;;28.25;18.13;;;;;;;;;;5066479;28;20047;-81
2023/06/09 00:15:59;;;;;;;26.75;18.27;;;;;;;;;;5060057;28;20113;-81
2023/06/09 00:18:26;;;;;;;28.58;17.38;;;;;;;;;;5063974;28;20080;-82
2023/06/09 00:20:53;;;;;;;27.88;17.00;;;;;;;;;;5062357;28;20076;-80
2023/06/09 00:23:23;;;;;;;21.45;16.38;;;;;;;;;;5063522;28;20045;-80
2023/06/09 00:25:50;;;;;;;26.77;16.92;;;;;;;;;;5079728;28;20045;-81
2023/06/09 00:28:18;;;;;;;24.05;16.35;;;;;;;;;;5063614;28;20049;-81
2023/06/09 00:30:45;;;;;;;24.13;16.75;;;;;;;;;;5061053;28;20041;-82
2023/06/09 00:33:12;;;;;;;29.13;19.15;;;;;;;;;;5061832;28;20048;-81
2023/06/09 00:35:38;;;;;;;26.67;17.60;;;;;;;;;;5044681;28;20072;-80
2023/06/09 00:38:05;;;;;;;27.55;19.02;;;;;;;;;;5063939;28;20045;-82
2023/06/09 00:40:32;;;;;;;34.42;18.60;;;;;;;;;;5063389;28;20049;-81
2023/06/09 00:42:59;;;;;;;31.08;20.60;;;;;;;;;;5065169;28;20049;-80
2023/06/09 00:45:26;;;;;;;29.27;19.42;;;;;;;;;;5062971;28;20055;-81
2023/06/09 00:47:53;;;;;;;27.63;19.30;;;;;;;;;;5064865;28;20075;-81
2023/06/09 00:50:20;;;;;;;30.40;20.02;;;;;;;;;;5062368;28;20072;-81
2023/06/09 00:52:48;;;;;;;28.65;19.20;;;;;;;;;;5070437;28;20155;-81
2023/06/09 00:55:17;;;;;;;30.23;17.98;;;;;;;;;;5074321;28;20241;-81
2023/06/09 00:57:46;;;;;;;26.58;17.42;;;;;;;;;;5085533;28;20088;-81
2023/06/09 01:00:16;;;;;;;27.98;18.58;;;;;;;;;;5062642;28;20056;-80
2023/06/09 01:02:43;;;;;;;28.20;19.48;;;;;;;;;;5079031;28;20033;-82
2023/06/09 01:05:13;;;;;;;27.60;18.40;;;;;;;;;;5082180;28;20048;-82
2023/06/09 01:07:50;;;;;;;28.70;17.52;;;;;;;;;;5087342;28;20067;-82
2023/06/09 01:10:17;;;;;;;25.65;15.90;;;;;;;;;;5086791;28;20575;-81
2023/06/09 01:12:47;;;;;;;23.85;14.15;;;;;;;;;;5086210;28;20047;-82
2023/06/09 01:15:17;;;;;;;25.20;15.65;;;;;;;;;;5086891;28;20072;-83
2023/06/09 01:17:50;;;;;;;24.95;14.65;;;;;;;;;;5083969;28;20041;-81
2023/06/09 01:20:22;;;;;;;29.58;14.57;;;;;;;;;;5067504;28;20087;-81
2023/06/09 01:22:49;;;;;;;25.63;15.88;;;;;;;;;;5081828;28;20044;-81
2023/06/09 01:25:23;;;;;;;24.42;15.93;;;;;;;;;;5081923;28;20052;-83
2023/06/09 01:27:51;;;;;;;24.20;17.10;;;;;;;;;;5083046;28;20040;-82
2023/06/09 01:30:18;;;;;;;28.90;19.13;;;;;;;;;;5077816;28;20072;-81
2023/06/09 01:32:45;;;;;;;26.42;19.33;;;;;;;;;;5079348;28;20068;-80
2023/06/09 01:35:12;;;;;;;34.78;25.33;;;;;;;;;;5079577;28;20104;-80
2023/06/09 01:37:39;;;;;;;38.65;25.08;;;;;;;;;;5062697;28;20050;-81
2023/06/09 01:40:07;;;;;;;37.65;26.92;;;;;;;;;;5076411;28;20052;-81
2023/06/09 01:42:35;;;;;;;37.67;26.15;;;;;;;;;;5081265;28;20134;-80
2023/06/09 01:45:01;;;;;;;36.88;26.35;;;;;;;;;;5080963;28;20063;-80
2023/06/09 01:47:28;;;;;;;37.65;26.08;;;;;;;;;;5083856;28;20045;-79
2023/06/09 01:50:01;;;;;;;37.90;26.05;;;;;;;;;;5081961;28;20048;-80
2023/06/09 01:52:28;;;;;;;38.15;25.35;;;;;;;;;;5078536;28;20045;-79
2023/06/09 01:55:00;;;;;;;43.28;25.45;;;;;;;;;;5073868;28;20049;-81
2023/06/09 01:57:30;;;;;;;38.67;25.75;;;;;;;;;;5061178;28;20576;-80
2023/06/09 01:59:59;;;;;;;40.40;24.60;;;;;;;;;;5051295;28;20255;-81
2023/06/09 02:02:26;;;;;;;34.58;24.73;;;;;;;;;;5061620;28;20095;-80
2023/06/09 02:04:56;;;;;;;36.05;25.08;;;;;;;;;;5061736;28;20436;-80
2023/06/09 02:07:23;;;;;;;37.03;25.33;;;;;;;;;;5062481;28;20068;-81
2023/06/09 02:09:52;;;;;;;35.70;24.75;;;;;;;;;;5061692;28;20586;-78
2023/06/09 02:12:19;;;;;;;35.97;24.58;;;;;;;;;;5060752;28;20036;-79
2023/06/09 02:14:46;;;;;;;34.88;24.25;;;;;;;;;;5059699;28;20400;-80
2023/06/09 02:17:12;;;;;;;33.85;23.85;;;;;;;;;;5061529;28;20057;-81
2023/06/09 02:19:39;;;;;;;35.90;24.25;;;;;;;;;;5061210;28;20042;-80
2023/06/09 02:22:06;;;;;;;30.83;22.17;;;;;;;;;;5060392;28;20041;-80
2023/06/09 02:24:33;;;;;;;39.22;23.67;;;;;;;;;;5059786;28;20033;-80
2023/06/09 02:27:01;;;;;;;33.38;23.85;;;;;;;;;;5059832;28;20056;-80
2023/06/09 02:29:30;;;;;;;30.85;22.90;;;;;;;;;;5043379;28;20071;-80
2023/06/09 02:31:58;;;;;;;34.72;22.50;;;;;;;;;;5060178;28;20094;-79
2023/06/09 02:34:26;;;;;;;33.22;22.15;;;;;;;;;;5058199;28;20045;-78
2023/06/09 02:36:54;;;;;;;31.48;22.73;;;;;;;;;;5065173;28;20064;-81
2023/06/09 02:39:21;;;;;;;38.97;23.98;;;;;;;;;;5057086;28;20037;-81
2023/06/09 02:41:48;;;;;;;33.08;24.35;;;;;;;;;;5053664;28;20048;-80
2023/06/09 02:44:14;;;;;;;36.95;24.95;;;;;;;;;;5059927;28;20296;-80
2023/06/09 02:46:42;;;;;;;36.90;23.83;;;;;;;;;;5060292;28;20049;-81
2023/06/09 02:49:09;;;;;;;32.15;23.48;;;;;;;;;;5060209;28;20104;-82
2023/06/09 02:51:36;;;;;;;36.35;22.75;;;;;;;;;;5065618;28;20310;-81
2023/06/09 02:54:05;;;;;;;32.08;21.67;;;;;;;;;;5083549;28;20051;-81
2023/06/09 02:56:34;;;;;;;29.00;21.02;;;;;;;;;;5074975;28;20512;-81
2023/06/09 02:59:01;;;;;;;29.60;20.10;;;;;;;;;;5063347;28;20152;-78
2023/06/09 03:01:34;;;;;;;29.67;21.27;;;;;;;;;;5064283;28;20131;-80
2023/06/09 03:04:05;;;;;;;30.23;20.83;;;;;;;;;;5082158;28;20060;-80
2023/06/09 03:06:36;;;;;;;28.55;19.65;;;;;;;;;;5081440;28;20056;-82
2023/06/09 03:09:06;;;;;;;27.67;19.15;;;;;;;;;;5082779;28;20116;-81
2023/06/09 03:11:34;;;;;;;28.50;18.88;;;;;;;;;;5071976;28;20071;-81
2023/06/09 03:14:01;;;;;;;24.50;18.25;;;;;;;;;;5061808;28;20177;-80
2023/06/09 03:16:27;;;;;;;28.40;18.77;;;;;;;;;;5061876;28;20084;-79
2023/06/09 03:18:54;;;;;;;29.23;17.92;;;;;;;;;;5071946;28;20302;-80
2023/06/09 03:21:24;;;;;;;26.48;18.80;;;;;;;;;;5063381;28;20063;-80
2023/06/09 03:23:52;;;;;;;27.88;17.25;;;;;;;;;;5064948;28;20048;-78
2023/06/09 03:26:19;;;;;;;25.02;16.73;;;;;;;;;;5072788;28;20068;-81
2023/06/09 03:28:45;;;;;;;29.60;17.05;;;;;;;;;;5067483;28;20044;-81
2023/06/09 03:31:14;;;;;;;23.67;18.08;;;;;;;;;;5063330;28;20104;-82
2023/06/09 03:33:43;;;;;;;29.90;17.98;;;;;;;;;;5084536;28;20120;-82
2023/06/09 03:36:11;;;;;;;28.88;18.10;;;;;;;;;;5082936;28;20071;-82
2023/06/09 03:38:38;;;;;;;30.83;19.15;;;;;;;;;;5084448;28;20074;-81
2023/06/09 03:41:05;;;;;;;28.10;19.85;;;;;;;;;;5082570;28;20040;-82
2023/06/09 03:43:32;;;;;;;27.02;19.65;;;;;;;;;;5072895;28;20132;-80
2023/06/09 03:45:59;;;;;;;29.83;18.98;;;;;;;;;;5071835;28;20040;-80
2023/06/09 03:48:27;;;;;;;28.50;18.17;;;;;;;;;;5071803;28;20048;-81
2023/06/09 03:50:53;;;;;;;30.90;18.20;;;;;;;;;;5071147;28;20128;-80
2023/06/09 03:53:20;;;;;;;26.98;16.88;;;;;;;;;;5066017;28;20086;-80
2023/06/09 03:55:47;;;;;;;22.40;16.83;;;;;;;;;;5072638;28;20098;-79
2023/06/09 03:58:14;;;;;;;25.50;16.60;;;;;;;;;;5055566;28;20091;-78
2023/06/09 04:00:42;;;;;;;25.75;16.92;;;;;;;;;;5056831;28;20040;-80
2023/06/09 04:03:09;;;;;;;24.00;15.52;;;;;;;;;;5079725;28;20106;-80
2023/06/09 04:05:36;;;;;;;24.35;17.17;;;;;;;;;;5062675;28;20115;-79
2023/06/09 04:08:03;;;;;;;25.45;16.80;;;;;;;;;;5062316;28;20061;-79
2023/06/09 04:10:30;;;;;;;29.67;16.90;;;;;;;;;;5064545;28;20044;-79
2023/06/09 04:12:57;;;;;;;28.40;16.90;;;;;;;;;;5068583;28;20055;-79
2023/06/09 04:15:24;;;;;;;26.85;17.67;;;;;;;;;;5070251;28;20055;-79
2023/06/09 04:17:53;;;;;;;29.38;17.88;;;;;;;;;;5064171;28;20319;-80
2023/06/09 04:20:25;;;;;;;31.85;18.02;;;;;;;;;;5045773;28;20512;-80
2023/06/09 04:22:52;;;;;;;29.13;17.50;;;;;;;;;;5067159;28;20109;-81
2023/06/09 04:25:25;;;;;;;26.92;19.17;;;;;;;;;;5061812;28;20048;-82
2023/06/09 04:27:56;;;;;;;28.67;19.02;;;;;;;;;;5083168;28;20041;-81
2023/06/09 04:30:29;;;;;;;25.13;18.65;;;;;;;;;;5061341;28;20048;-82
2023/06/09 04:33:04;;;;;;;28.67;19.25;;;;;;;;;;5061632;28;20587;-79
2023/06/09 04:35:31;;;;;;;27.55;17.95;;;;;;;;;;5060034;28;20040;-79
2023/06/09 04:37:59;;;;;;;27.25;18.63;;;;;;;;;;5056802;28;20047;-79
2023/06/09 04:40:31;;;;;;;28.10;17.77;;;;;;;;;;5054653;28;20040;-79
2023/06/09 04:42:59;;;;;;;33.65;20.08;;;;;;;;;;5038973;28;20040;-78
2023/06/09 04:45:28;;;;;;;28.70;19.58;;;;;;;;;;5051050;28;20485;-79
2023/06/09 04:48:00;;;;;;;23.58;17.85;;;;;;;;;;5049264;28;20063;-78
2023/06/09 04:50:32;;;;;;;27.45;18.67;;;;;;;;;;5047269;28;20064;-77
2023/06/09 04:53:03;;;;;;;26.77;18.60;;;;;;;;;;5059251;28;20045;-78
2023/06/09 04:55:35;;;;;;;23.88;18.05;;;;;;;;;;5068982;28;20040;-78
2023/06/09 04:58:04;;;;;;;25.55;18.27;;;;;;;;;;5054080;28;20480;-79
2023/06/09 05:00:33;;;;;;;24.30;16.80;;;;;;;;;;5055507;28;20055;-80
2023/06/09 05:03:03;;;;;;;27.55;18.15;;;;;;;;;;5054916;28;20048;-79
2023/06/09 05:05:36;;;;;;;24.40;17.73;;;;;;;;;;5057382;28;20455;-79
2023/06/09 05:08:04;;;;;;;21.98;16.77;;;;;;;;;;5057128;28;20059;-79
2023/06/09 05:10:32;;;;;;;28.02;18.00;;;;;;;;;;5057595;28;20040;-79
2023/06/09 05:12:59;;;;;;;30.17;18.38;;;;;;;;;;5053794;28;20560;-79
2023/06/09 05:15:27;;;;;;;25.83;18.42;;;;;;;;;;5031096;28;20029;-79
2023/06/09 05:17:55;;;;;;;25.50;18.10;;;;;;;;;;5055451;28;20132;-78
2023/06/09 05:20:23;;;;;;;25.45;18.38;;;;;;;;;;5031710;28;20037;-78
2023/06/09 05:22:50;;;;;;;27.98;18.73;;;;;;;;;;5046294;28;20091;-79
2023/06/09 05:25:18;;;;;;;29.10;18.17;;;;;;;;;;5063017;28;20361;-81
2023/06/09 05:27:45;;;;;;;23.70;18.73;;;;;;;;;;5076073;28;20058;-81
2023/06/09 05:30:13;;;;;;;23.92;17.83;;;;;;;;;;5061141;28;20055;-79
2023/06/09 05:32:40;;;;;;;27.95;19.02;;;;;;;;;;5078703;28;20029;-81
2023/06/09 05:35:08;;;;;;;25.40;17.67;;;;;;;;;;5078759;28;20044;-80
2023/06/09 05:37:49;;;;;;;24.67;17.48;;;;;;;;;;5079591;28;20047;-79
2023/06/09 05:40:18;;;;;;;22.27;16.98;;;;;;;;;;5080195;28;20286;-80
2023/06/09 05:42:49;;;;;;;25.05;16.83;;;;;;;;;;5089953;28;20047;-80
2023/06/09 05:45:16;;;;;;;27.95;17.45;;;;;;;;;;5089232;28;20059;-81
2023/06/09 05:47:43;;;;;;;25.75;16.50;;;;;;;;;;5085743;28;20086;-79
2023/06/09 05:50:10;;;;;;;21.85;15.63;;;;;;;;;;5066045;28;20044;-80
2023/06/09 05:52:37;;;;;;;20.33;15.43;;;;;;;;;;5071875;28;20036;-80
2023/06/09 05:55:09;;;;;;;21.40;15.23;;;;;;;;;;5062092;28;20049;-81
2023/06/09 05:57:36;;;;;;;23.80;15.35;;;;;;;;;;5078377;28;20048;-80
2023/06/09 06:00:07;;;;;;;24.10;15.85;;;;;;;;;;5065457;28;20045;-81
2023/06/09 06:02:39;;;;;;;30.77;15.43;;;;;;;;;;5069589;28;20048;-81
2023/06/09 06:05:06;;;;;;;27.00;16.65;;;;;;;;;;5077507;28;20204;-79
2023/06/09 06:07:36;;;;;;;22.67;15.52;;;;;;;;;;5078083;28;20105;-81
2023/06/09 06:10:06;;;;;;;22.83;15.48;;;;;;;;;;5074964;28;20052;-82
2023/06/09 06:12:34;;;;;;;24.30;15.27;;;;;;;;;;5076429;28;20104;-79
2023/06/09 06:15:00;;;;;;;24.85;14.73;;;;;;;;;;5075628;28;20075;-80
2023/06/09 06:17:56;;;;;;;26.67;15.00;;;;;;;;;;5066796;28;20048;-80
2023/06/09 06:20:48;;;;;;;28.75;14.35;;;;;;;;;;5086542;28;20075;-81
2023/06/09 06:24:04;;;;;;;26.17;14.82;;;;;;;;;;5081759;28;20032;-79
2023/06/09 06:27:01;;;;;;;18.77;14.00;;;;;;;;;;5078705;28;20119;-80
2023/06/09 06:30:17;;;;;;;17.02;13.95;;;;;;;;;;5084299;28;20035;-79
2023/06/09 06:32:49;;;;;;;21.02;14.60;;;;;;;;;;5085070;28;20037;-80
2023/06/09 06:35:47;;;;;;;20.95;14.63;;;;;;;;;;5080269;28;20133;-80
2023/06/09 06:39:03;;;;;;;21.52;14.52;;;;;;;;;;5086971;28;20104;-79
2023/06/09 06:41:58;;;;;;;21.65;15.63;;;;;;;;;;5084285;28;20055;-80
2023/06/09 06:44:51;;;;;;;21.35;15.18;;;;;;;;;;5083305;28;20067;-80
2023/06/09 06:47:19;;;;;;;18.65;15.40;;;;;;;;;;5079702;28;20044;-80
2023/06/09 06:49:46;;;;;;;23.50;16.33;;;;;;;;;;5082400;28;20048;-80
2023/06/09 06:52:12;;;;;;;19.40;15.65;;;;;;;;;;5071506;28;20060;-80
2023/06/09 06:54:39;;;;;;;23.80;15.85;;;;;;;;;;5069532;28;20049;-80
2023/06/09 06:57:06;;;;;;;22.92;16.30;;;;;;;;;;5069483;28;20041;-79
2023/06/09 06:59:32;;;;;;;20.88;15.38;;;;;;;;;;5059846;28;20155;-81
2023/06/09 07:01:59;;;;;;;26.05;16.25;;;;;;;;;;5059343;28;20044;-79
2023/06/09 07:04:26;;;;;;;22.88;16.05;;;;;;;;;;5068693;28;20173;-79
2023/06/09 07:06:52;;;;;;;22.30;14.63;;;;;;;;;;5064032;28;20064;-79
2023/06/09 07:10:08;;;;;;;22.52;14.88;;;;;;;;;;5056220;28;20429;-79
2023/06/09 07:13:23;;;;;;;19.17;14.52;;;;;;;;;;5059456;28;20059;-79
2023/06/09 07:16:39;;;;;;;19.25;13.95;;;;;;;;;;5068327;28;20104;-80
2023/06/09 07:19:11;;;;;;;20.98;14.27;;;;;;;;;;5078140;28;20048;-79
2023/06/09 07:22:27;;;;;;;19.20;13.65;;;;;;;;;;5070265;28;20167;-79
2023/06/09 07:25:19;;;;;;;27.63;13.55;;;;;;;;;;5057530;28;20063;-79
2023/06/09 07:27:47;;;;;;;21.00;11.90;;;;;;;;;;5052123;28;20051;-80
2023/06/09 07:30:14;;;;;;;18.48;12.98;;;;;;;;;;5049729;28;20049;-79
2023/06/09 07:32:41;;;;;;;18.55;13.40;;;;;;;;;;5051078;28;20051;-79
2023/06/09 07:35:12;;;;;;;20.38;11.27;;;;;;;;;;5078601;28;20052;-80
2023/06/09 07:37:42;;;;;;;13.43;9.35;;;;;;;;;;5082605;28;20067;-80
2023/06/09 07:40:11;;;;;;;11.82;9.38;;;;;;;;;;5081176;28;20044;-80
2023/06/09 07:42:48;;;;;;;14.80;8.93;;;;;;;;;;5080869;28;20641;-80
2023/06/09 07:45:15;;;;;;;12.88;8.70;;;;;;;;;;5081203;28;20052;-80
2023/06/09 07:47:42;;;;;;;13.93;8.50;;;;;;;;;;5063139;28;20051;-79
2023/06/09 07:50:09;;;;;;;14.88;8.18;;;;;;;;;;5080264;28;20135;-80
2023/06/09 07:52:37;;;;;;;12.32;8.57;;;;;;;;;;5074358;28;20040;-79
2023/06/09 07:55:04;;;;;;;11.00;7.60;;;;;;;;;;5060886;28;20048;-81
2023/06/09 07:58:07;;;;;;;11.23;7.60;;;;;;;;;;5077562;28;20117;-80
2023/06/09 08:00:59;;;;;;;12.70;7.55;;;;;;;;;;5062605;28;20325;-78
2023/06/09 08:04:13;;;;;;;12.88;7.30;;;;;;;;;;5053814;28;20040;-80
2023/06/09 08:07:06;;;;;;;10.82;7.55;;;;;;;;;;5053642;28;20052;-80
2023/06/09 08:10:22;;;;;;;10.80;7.97;;;;;;;;;;5054749;28;20456;-80
2023/06/09 08:13:38;;;;;;;15.20;7.22;;;;;;;;;;5053623;28;20056;-79
2023/06/09 08:16:52;;;;;;;16.77;7.80;;;;;;;;;;5055659;28;20384;-80
2023/06/09 08:19:19;;;;;;;9.43;7.20;;;;;;;;;;5053843;28;20069;-79
2023/06/09 08:21:46;;;;;;;10.07;7.10;;;;;;;;;;5051449;28;20045;-78
2023/06/09 08:24:13;;;;;;;13.15;7.65;;;;;;;;;;5052623;28;20052;-80
2023/06/09 08:26:48;;;;;;;11.70;7.50;;;;;;;;;;5065523;28;20052;-79
2023/06/09 08:29:45;;;;;;;12.73;7.82;;;;;;;;;;5051534;28;20567;-79
2023/06/09 08:33:01;;;;;;;11.68;7.55;;;;;;;;;;5053986;28;20044;-80
2023/06/09 08:35:57;;;;;;;;;;;;;;;;;;5064722;28;20103;-78
2023/06/09 08:39:12;;;;;;;12.30;7.70;;;;;;;;;;5051703;28;19923;-80
2023/06/09 08:42:06;;;;;;;13.52;8.80;;;;;;;;;;5064049;28;20194;-79
2023/06/09 08:45:02;;;;;;;11.88;8.27;;;;;;;;;;5051199;28;20048;-79
2023/06/09 08:47:59;;;;;;;11.95;8.38;;;;;;;;;;5067445;28;20147;-79
2023/06/09 08:50:34;;;;;;;17.38;8.95;;;;;;;;;;5070352;28;20049;-79
2023/06/09 08:53:53;;;;;;;14.10;8.05;;;;;;;;;;5072315;28;20032;-80
2023/06/09 08:56:21;;;;;;;16.02;8.13;;;;;;;;;;5066394;28;20402;-79
2023/06/09 08:58:49;;;;;;;12.23;8.15;;;;;;;;;;5052602;28;20041;-80
2023/06/09 09:01:17;;;;;;;14.98;7.90;;;;;;;;;;5049032;28;20080;-79
2023/06/09 09:03:44;;;;;;;11.95;7.97;;;;;;;;;;5048981;28;20040;-79
2023/06/09 09:06:11;;;;;;;12.60;7.88;;;;;;;;;;5056475;28;20063;-79
2023/06/09 09:08:37;;;;;;;13.20;7.28;;;;;;;;;;5052662;28;20595;-79
2023/06/09 09:11:04;;;;;;;10.48;8.13;;;;;;;;;;5053964;28;20037;-79
2023/06/09 09:13:31;;;;;;;16.48;7.78;;;;;;;;;;5054978;28;20061;-80
2023/06/09 09:16:00;;;;;;;10.88;7.45;;;;;;;;;;5051152;28;20459;-80
2023/06/09 09:19:26;;;;;;;11.38;8.20;;;;;;;;;;5052472;28;20040;-79
2023/06/09 09:22:23;;;;;;;15.03;8.43;;;;;;;;;;5051926;28;20040;-79
2023/06/09 09:25:25;;;;;;;13.45;8.50;;;;;;;;;;5055428;28;20060;-79
2023/06/09 09:28:05;;;;;;;12.52;8.32;;;;;;;;;;5053196;28;20057;-79
2023/06/09 09:30:58;;;;;;;16.95;9.10;;;;;;;;;;5050611;28;20123;-80
2023/06/09 09:34:14;;;;;;;12.30;8.30;;;;;;;;;;5051680;28;20523;-79
2023/06/09 09:37:09;;;;;;;12.45;8.35;;;;;;;;;;5054842;28;20210;-80
2023/06/09 09:40:05;;;;;;;10.35;7.43;;;;;;;;;;5051769;28;20064;-79
2023/06/09 09:43:01;;;;;;;10.88;7.78;;;;;;;;;;5051359;28;20501;-79
2023/06/09 09:46:19;;;;;;;14.25;7.25;;;;;;;;;;5049930;28;20304;-79
2023/06/09 09:49:20;;;;;;;11.57;7.22;;;;;;;;;;5050764;28;20115;-79
2023/06/09 09:55:54;;;;;;;12.65;7.30;;;;;;;;;;5056546;28;20106;-80
2023/06/09 09:59:09;;;;;;;11.90;7.97;;;;;;;;;;5071370;28;20059;-79
2023/06/09 10:02:04;;;;;;;11.18;7.38;;;;;;;;;;5069889;28;20093;-79
2023/06/09 10:05:05;;;;;;;10.85;7.90;;;;;;;;;;5069497;28;20546;-79
2023/06/09 10:08:22;;;;;;;14.50;7.45;;;;;;;;;;5068672;28;20035;-79
2023/06/09 10:11:14;;;;;;;10.43;7.40;;;;;;;;;;5069907;28;20052;-79
2023/06/09 10:14:30;;;;;;;9.60;7.93;;;;;;;;;;5067736;28;20570;-79
2023/06/09 10:17:26;;;;;;;11.07;6.97;;;;;;;;;;5048260;28;20179;-79
2023/06/09 10:20:42;;;;;;;13.60;6.57;;;;;;;;;;5063478;28;20093;-79
2023/06/09 10:23:58;;;;;;;8.57;5.88;;;;;;;;;;5060833;28;20875;-79
2023/06/09 10:26:51;;;;;;;11.27;6.57;;;;;;;;;;5056768;28;20056;-80
2023/06/09 10:30:08;;;;;;;12.43;6.85;;;;;;;;;;5051059;28;20286;-79
2023/06/09 10:33:10;;;;;;;11.38;6.07;;;;;;;;;;5048662;28;20056;-79
2023/06/09 10:36:09;;;;;;;10.10;5.63;;;;;;;;;;5047689;28;20059;-79
2023/06/09 10:39:30;;;;;;;10.80;5.85;;;;;;;;;;5050348;28;20037;-80
2023/06/09 10:42:07;;;;;;;8.27;5.70;;;;;;;;;;5053659;28;20075;-80
2023/06/09 10:45:22;;;;;;;9.18;5.63;;;;;;;;;;5052622;28;20062;-81
2023/06/09 10:48:35;;;;;;;7.70;5.47;;;;;;;;;;5052460;28;20409;-80
2023/06/09 10:51:51;;;;;;;10.05;5.68;;;;;;;;;;5059742;28;20457;-79
2023/06/09 10:55:03;;;;;;;10.13;6.05;;;;;;;;;;5065468;28;20216;-78
2023/06/09 10:58:36;;;;;;;9.18;5.93;;;;;;;;;;5053033;28;20028;-80
2023/06/09 11:02:03;;;;;;;12.52;6.30;;;;;;;;;;5076103;28;20075;-80
2023/06/09 11:04:56;;;;;;;8.15;4.80;;;;;;;;;;5069082;28;20044;-79
2023/06/09 11:08:03;;;;;;;10.35;4.65;;;;;;;;;;5067711;28;20102;-80
2023/06/09 11:10:54;;;;;;;5.25;4.65;;;;;;;;;;5071301;28;20059;-79
2023/06/09 11:14:10;;;;;;;7.13;4.65;;;;;;;;;;5078824;28;20051;-79
2023/06/09 11:17:19;;;;;;;8.27;4.30;;;;;;;;;;5072098;28;20610;-79
2023/06/09 11:20:37;;;;;;;6.72;4.55;;;;;;;;;;5074397;28;20043;-79
2023/06/09 11:23:29;;;;;;;6.97;4.88;;;;;;;;;;5076103;28;20043;-80
2023/06/09 11:26:27;;;;;;;13.38;5.25;;;;;;;;;;5074935;28;20048;-79
2023/06/09 11:29:44;;;;;;;7.22;4.90;;;;;;;;;;5075801;28;20078;-79
2023/06/09 11:32:12;;;;;;;7.25;4.70;;;;;;;;;;5074191;28;20070;-79
2023/06/09 11:34:55;;;;;;;8.90;5.18;;;;;;;;;;5073242;28;20060;-81
2023/06/09 11:37:23;;;;;;;10.48;5.05;;;;;;;;;;5076044;28;20451;-79
2023/06/09 11:39:50;;;;;;;8.38;5.45;;;;;;;;;;5076213;28;20079;-80
2023/06/09 11:42:17;;;;;;;12.48;5.55;;;;;;;;;;5076388;28;20044;-80
2023/06/09 11:45:09;;;;;;;8.10;4.80;;;;;;;;;;5077935;28;20051;-79
2023/06/09 11:47:39;;;;;;;15.27;5.00;;;;;;;;;;5076797;28;20101;-79
2023/06/09 11:50:10;;;;;;;7.60;4.50;;;;;;;;;;5078879;28;20081;-80
2023/06/09 11:52:40;;;;;;;6.50;4.10;;;;;;;;;;5073447;28;20047;-79
2023/06/09 11:55:07;;;;;;;7.57;4.47;;;;;;;;;;5070739;28;20049;-79
2023/06/09 11:57:35;;;;;;;6.78;4.32;;;;;;;;;;5067270;28;20044;-80
2023/06/09 12:00:05;;;;;;;5.93;4.47;;;;;;;;;;5062595;28;20049;-79
2023/06/09 12:02:38;;;;;;;5.88;4.47;;;;;;;;;;5055546;28;20037;-80
2023/06/09 12:05:06;;;;;;;8.75;4.60;;;;;;;;;;5067513;28;20053;-79
2023/06/09 12:07:35;;;;;;;12.35;4.68;;;;;;;;;;5065099;28;20048;-78
2023/06/09 12:10:02;;;;;;;9.98;4.40;;;;;;;;;;5072624;28;20507;-78
2023/06/09 12:12:29;;;;;;;6.50;4.38;;;;;;;;;;5072245;28;20077;-78
2023/06/09 12:15:21;;;;;;;7.13;4.70;;;;;;;;;;5071708;28;20047;-78
2023/06/09 12:18:17;;;;;;;7.95;5.20;;;;;;;;;;5068885;28;20037;-79
2023/06/09 12:20:45;;;;;;;8.20;5.50;;;;;;;;;;5069018;28;20127;-79
2023/06/09 12:23:13;;;;;;;6.68;5.20;;;;;;;;;;5070773;28;20052;-80
2023/06/09 12:25:41;;;;;;;10.20;4.95;;;;;;;;;;5059000;28;20505;-78
2023/06/09 12:28:23;;;;;;;9.10;5.05;;;;;;;;;;5052155;28;20045;-79
2023/06/09 12:30:50;;;;;;;8.32;5.00;;;;;;;;;;5051457;28;20060;-81
2023/06/09 12:33:18;;;;;;;8.98;4.93;;;;;;;;;;5052760;28;20041;-80
2023/06/09 12:35:49;;;;;;;7.25;5.13;;;;;;;;;;5042001;28;20045;-81
2023/06/09 12:38:43;;;;;;;8.63;5.40;;;;;;;;;;5071986;28;20059;-79
2023/06/09 12:42:09;;;;;;;7.70;4.88;;;;;;;;;;5071722;28;20097;-78
2023/06/09 12:45:07;;;;;;;7.20;5.00;;;;;;;;;;5071687;28;20187;-79
2023/06/09 12:48:04;;;;;;;10.60;5.13;;;;;;;;;;5071073;28;20060;-79
2023/06/09 12:51:20;;;;;;;9.23;5.35;;;;;;;;;;5065181;28;20670;-80
2023/06/09 12:54:37;;;;;;;6.00;5.00;;;;;;;;;;5065926;28;20040;-80
2023/06/09 12:57:29;;;;;;;7.80;4.80;;;;;;;;;;5070495;28;20740;-80
2023/06/09 12:59:56;;;;;;;12.15;4.90;;;;;;;;;;5073803;28;20036;-80
2023/06/09 13:02:43;;;;;;;7.70;4.68;;;;;;;;;;5077566;28;20040;-80
2023/06/09 13:05:21;;;;;;;13.02;5.50;;;;;;;;;;5060353;28;20048;-81
2023/06/09 13:07:48;;;;;;;10.15;4.63;;;;;;;;;;5057641;28;20054;-81
2023/06/09 13:10:14;;;;;;;11.02;5.07;;;;;;;;;;5058829;28;20056;-81
2023/06/09 13:12:41;;;;;;;7.65;4.60;;;;;;;;;;5073259;28;20174;-80
2023/06/09 13:15:57;;;;;;;11.00;5.35;;;;;;;;;;5069693;28;20040;-79
2023/06/09 13:18:49;;;;;;;10.20;4.70;;;;;;;;;;5064046;28;20064;-80
2023/06/09 13:21:27;;;;;;;9.25;5.13;;;;;;;;;;5092442;28;20079;-81
2023/06/09 13:24:06;;;;;;;10.15;5.50;;;;;;;;;;5071894;28;20044;-80
2023/06/09 13:26:41;;;;;;;8.45;5.22;;;;;;;;;;5079072;28;20042;-81
2023/06/09 13:29:14;;;;;;;19.08;5.40;;;;;;;;;;5063231;28;20053;-80
2023/06/09 13:31:41;;;;;;;7.18;5.28;;;;;;;;;;5065806;28;20072;-82
2023/06/09 13:34:18;;;;;;;7.28;4.90;;;;;;;;;;5072158;28;20067;-81
2023/06/09 13:36:48;;;;;;;8.13;4.70;;;;;;;;;;5037181;28;20125;-79
2023/06/09 13:39:15;;;;;;;8.23;5.30;;;;;;;;;;5053150;28;20053;-79
2023/06/09 13:41:45;;;;;;;10.00;5.03;;;;;;;;;;5048410;28;20428;-81
2023/06/09 13:44:18;;;;;;;7.22;4.82;;;;;;;;;;5052744;28;20064;-80
2023/06/09 13:46:47;;;;;;;10.13;5.15;;;;;;;;;;5046041;28;20132;-77
2023/06/09 13:49:44;;;;;;;8.00;4.80;;;;;;;;;;5062610;28;20074;-78
2023/06/09 13:52:14;;;;;;;7.30;4.80;;;;;;;;;;5061520;28;20044;-79
2023/06/09 13:54:46;;;;;;;8.23;5.47;;;;;;;;;;5054167;28;20536;-78
2023/06/09 13:57:12;;;;;;;9.45;5.00;;;;;;;;;;5037426;28;20135;-79
2023/06/09 13:59:39;;;;;;;9.45;4.70;;;;;;;;;;5053906;28;20106;-78
2023/06/09 14:02:06;;;;;;;8.00;4.38;;;;;;;;;;5066111;28;20365;-79
2023/06/09 14:04:35;;;;;;;6.50;4.40;;;;;;;;;;5064846;28;20048;-78
2023/06/09 14:07:02;;;;;;;7.03;4.60;;;;;;;;;;5067659;28;20044;-77
2023/06/09 14:09:29;;;;;;;5.78;4.50;;;;;;;;;;5067266;28;20523;-79
2023/06/09 14:11:55;;;;;;;8.55;4.82;;;;;;;;;;5065331;28;20122;-78
2023/06/09 14:14:26;;;;;;;7.28;4.28;;;;;;;;;;5066781;28;20127;-80
2023/06/09 14:16:58;;;;;;;5.93;3.70;;;;;;;;;;5061960;28;20528;-81
2023/06/09 14:19:25;;;;;;;6.40;4.07;;;;;;;;;;5051054;28;20063;-80
2023/06/09 14:21:52;;;;;;;8.98;4.85;;;;;;;;;;5047565;28;20126;-81
2023/06/09 14:24:30;;;;;;;8.23;4.60;;;;;;;;;;5061021;28;20151;-80
2023/06/09 14:26:57;;;;;;;6.25;4.43;;;;;;;;;;5054809;28;20053;-80
2023/06/09 14:29:23;;;;;;;8.95;4.35;;;;;;;;;;5040650;28;20041;-81
2023/06/09 14:31:51;;;;;;;6.88;4.53;;;;;;;;;;5042486;28;20140;-82
2023/06/09 14:34:18;;;;;;;6.25;4.50;;;;;;;;;;5062406;28;20170;-85
2023/06/09 14:36:45;;;;;;;10.05;4.63;;;;;;;;;;5068547;28;20048;-83
2023/06/09 14:39:11;;;;;;;6.00;4.88;;;;;;;;;;5065036;28;20052;-80
2023/06/09 14:41:38;;;;;;;10.65;4.85;;;;;;;;;;5048943;28;20044;-78
2023/06/09 14:44:05;;;;;;;6.95;4.50;;;;;;;;;;5054842;28;20052;-79
2023/06/09 14:46:31;;;;;;;7.57;4.50;;;;;;;;;;5051109;28;20455;-78
2023/06/09 14:48:58;;;;;;;11.02;4.65;;;;;;;;;;5056980;28;20038;-80
2023/06/09 14:51:25;;;;;;;8.00;4.32;;;;;;;;;;5052307;28;20037;-79
2023/06/09 14:53:51;;;;;;;6.90;4.25;;;;;;;;;;5072142;28;20132;-79
2023/06/09 14:56:20;;;;;;;5.38;4.38;;;;;;;;;;5062657;28;20041;-81
2023/06/09 14:58:49;;;;;;;8.07;4.15;;;;;;;;;;5047421;28;20116;-81
2023/06/09 15:01:20;;;;;;;5.00;4.20;;;;;;;;;;5048945;28;20055;-82
2023/06/09 15:03:53;;;;;;;10.50;4.70;;;;;;;;;;5050817;28;20248;-81
2023/06/09 15:06:28;;;;;;;;;;;;;;;;;;5056831;28;20123;-81
2023/06/09 15:08:57;;;;;;;7.28;4.15;;;;;;;;;;5071153;28;20320;-83
2023/06/09 15:11:23;;;;;;;5.70;4.57;;;;;;;;;;5068698;28;20044;-83
2023/06/09 15:13:57;;;;;;;7.63;4.13;;;;;;;;;;5069666;28;20389;-81
2023/06/09 15:16:24;;;;;;;8.60;4.35;;;;;;;;;;5068059;28;20078;-82
2023/06/09 15:18:52;;;;;;;10.32;4.50;;;;;;;;;;5070407;28;20048;-82
2023/06/09 15:21:19;;;;;;;8.48;4.22;;;;;;;;;;5068453;28;20128;-82
2023/06/09 15:23:45;;;;;;;6.93;4.25;;;;;;;;;;5069503;28;20554;-82
2023/06/09 15:26:17;;;;;;;11.98;4.70;;;;;;;;;;5068630;28;20041;-80
2023/06/09 15:28:43;;;;;;;7.38;4.65;;;;;;;;;;5051925;28;20076;-83